Time;durP1;ratioP1;P1;durP2;ratioP2;P2;SDS_P1;SDS_P2;PMS_P1;PMS_P2;Temp;Humidity;BMP_temperature;BMP_pressure;BME280_temperature;BME280_humidity;BME280_pressure;Samples;Min_cycle;Max_cycle;Signal;HPM_P1;HPM_P2
2023/03/03 00:02:01;;;;;;;;;;;;;;;28.26;23.54;101121.03;5047750;28;1902;-15
2023/03/03 00:04:27;;;;;;;;;;;;;;;28.24;23.84;101123.91;5036758;28;999;-14
2023/03/03 00:06:52;;;;;;;;;;;;;;;26.96;25.39;101110.56;5056017;28;1039;-14
2023/03/03 00:09:18;;;;;;;;;;;;;;;26.83;25.75;101114.63;5042463;28;1206;-14
2023/03/03 00:11:44;;;;;;;;;;;;;;;27.41;24.89;101108.19;5048001;28;1445;-14
2023/03/03 00:14:17;;;;;;;;;;;;;;;28.18;23.70;101110.28;5049325;28;1139;-14
2023/03/03 00:16:43;;;;;;;;;;;;;;;28.26;23.78;101104.78;5055004;28;1536;-14
2023/03/03 00:19:12;;;;;;;;;;;;;;;27.42;24.77;101109.06;5053078;28;1130;-15
2023/03/03 00:21:42;;;;;;;;;;;;;;;26.96;25.46;101113.25;5047950;28;1914;-14
2023/03/03 00:24:11;;;;;;;;;;;;;;;27.26;25.36;101114.34;5057861;28;1119;-15
2023/03/03 00:26:37;;;;;;;;;;;;;;;28.07;24.05;101098.88;5059222;28;1058;-14
2023/03/03 00:29:23;;;;;;;;;;;;;;;28.30;23.71;101098.00;5054910;28;1114;-14
2023/03/03 00:31:49;;;;;;;;;;;;;;;28.13;23.96;101091.06;5045517;28;1838;-14
2023/03/03 00:34:19;;;;;;;;;;;;;;;27.00;25.27;101099.25;5052341;28;1206;-14
2023/03/03 00:36:51;;;;;;;;;;;;;;;27.06;25.71;101103.13;5053300;28;1075;-15
2023/03/03 00:39:18;;;;;;;;;;;;;;;27.78;24.20;101083.41;5040694;28;1036;-14
2023/03/03 00:41:44;;;;;;;;;;;;;;;28.33;23.63;101084.16;5057097;28;1906;-14
2023/03/03 00:44:35;;;;;;;;;;;;;;;28.31;23.71;101090.75;5058889;28;1047;-14
2023/03/03 00:47:33;;;;;;;;;;;;;;;27.00;25.75;101087.59;5051740;28;1302;-15
2023/03/03 00:50:15;;;;;;;;;;;;;;;26.79;25.80;101086.31;5019045;28;1281;-14
2023/03/03 00:52:45;;;;;;;;;;;;;;;27.59;24.72;101077.38;5065750;28;1112;-15
2023/03/03 00:55:10;;;;;;;;;;;;;;;28.15;23.92;101064.66;5053351;28;1048;-14
2023/03/03 00:57:36;;;;;;;;;;;;;;;28.23;23.78;101068.16;5050304;28;1057;-14
2023/03/03 01:00:03;;;;;;;;;;;;;;;27.14;25.19;101069.84;5057354;28;1343;-14
2023/03/03 01:02:30;;;;;;;;;;;;;;;26.88;25.67;101071.75;5045317;28;2019;-14
2023/03/03 01:04:55;;;;;;;;;;;;;;;27.08;25.48;101067.84;5048766;28;1254;-14
2023/03/03 01:07:21;;;;;;;;;;;;;;;28.12;23.98;101065.88;5048432;28;1066;-15
2023/03/03 01:09:47;;;;;;;;;;;;;;;28.25;23.50;101059.84;5056430;28;1101;-14
2023/03/03 01:12:12;;;;;;;;;;;;;;;27.78;24.27;101053.66;5056876;28;1321;-14
2023/03/03 01:14:38;;;;;;;;;;;;;;;26.93;25.67;101055.03;5045108;28;1190;-14
2023/03/03 01:17:04;;;;;;;;;;;;;;;26.96;25.98;101046.59;5039833;28;1016;-14
2023/03/03 01:19:29;;;;;;;;;;;;;;;27.82;24.28;101049.56;5040458;28;1254;-14
2023/03/03 01:21:55;;;;;;;;;;;;;;;28.22;23.95;101043.97;5058141;28;1902;-14
2023/03/03 01:24:21;;;;;;;;;;;;;;;28.24;23.82;101041.94;5058093;28;1015;-14
2023/03/03 01:26:46;;;;;;;;;;;;;;;27.18;25.47;101043.31;5058220;28;1083;-14
2023/03/03 01:29:12;;;;;;;;;;;;;;;27.03;25.84;101041.38;5057966;28;988;-14
2023/03/03 01:31:37;;;;;;;;;;;;;;;27.53;24.88;101042.97;5056956;28;1042;-14
2023/03/03 01:34:03;;;;;;;;;;;;;;;28.18;23.96;101046.22;5054314;28;1175;-14
2023/03/03 01:36:29;;;;;;;;;;;;;;;28.17;23.97;101032.88;5048256;28;1067;-15
2023/03/03 01:38:54;;;;;;;;;;;;;;;27.25;25.21;101033.50;5072980;28;1071;-14
2023/03/03 01:41:20;;;;;;;;;;;;;;;26.87;25.67;101026.06;5057359;28;1906;-14
2023/03/03 01:43:46;;;;;;;;;;;;;;;27.10;25.36;101033.41;5043060;28;1379;-14
2023/03/03 01:46:21;;;;;;;;;;;;;;;27.98;24.42;101019.69;5057913;28;1232;-14
2023/03/03 01:48:47;;;;;;;;;;;;;;;28.32;23.90;101024.78;5052456;28;1150;-14
2023/03/03 01:51:20;;;;;;;;;;;;;;;28.31;23.67;101023.94;5036440;28;1309;-14
2023/03/03 01:53:50;;;;;;;;;;;;;;;26.85;26.15;101022.69;5049471;28;1180;-14
2023/03/03 01:56:16;;;;;;;;;;;;;;;26.91;25.84;101021.97;5038109;28;1131;-14
2023/03/03 01:58:43;;;;;;;;;;;;;;;27.74;24.49;101018.03;5048863;28;1427;-14
2023/03/03 02:01:10;;;;;;;;;;;;;;;28.22;24.06;101020.50;5049743;28;1152;-15
2023/03/03 02:03:36;;;;;;;;;;;;;;;28.26;23.60;101020.94;5043643;28;1906;-14
2023/03/03 02:06:12;;;;;;;;;;;;;;;27.32;25.24;101020.97;5042473;28;970;-14
2023/03/03 02:08:58;;;;;;;;;;;;;;;27.38;25.35;101025.66;5048414;28;1214;-14
2023/03/03 02:11:23;;;;;;;;;;;;;;;28.13;23.94;101026.16;5055517;28;1087;-14
2023/03/03 02:13:49;;;;;;;;;;;;;;;28.39;23.47;101027.63;5055847;28;1110;-14
2023/03/03 02:16:14;;;;;;;;;;;;;;;28.18;23.79;101029.13;5056768;28;1004;-14
2023/03/03 02:18:40;;;;;;;;;;;;;;;26.93;25.84;101028.06;5055737;28;1066;-14
2023/03/03 02:21:09;;;;;;;;;;;;;;;27.23;25.19;101020.19;5050774;28;1127;-15
2023/03/03 02:23:47;;;;;;;;;;;;;;;27.91;24.44;101024.13;5048746;28;1987;-14
2023/03/03 02:26:17;;;;;;;;;;;;;;;28.26;23.96;101022.81;5043000;28;1150;-14
2023/03/03 02:28:43;;;;;;;;;;;;;;;28.18;24.04;101013.75;5038507;28;1316;-14
2023/03/03 02:31:13;;;;;;;;;;;;;;;27.00;25.33;101023.66;5055734;28;1203;-15
2023/03/03 02:33:39;;;;;;;;;;;;;;;26.86;26.14;101011.72;5055490;28;2025;-14
2023/03/03 02:36:06;;;;;;;;;;;;;;;27.19;25.53;101016.16;5056661;28;1118;-15
2023/03/03 02:38:51;;;;;;;;;;;;;;;28.15;23.90;101022.25;5042343;28;1104;-14
2023/03/03 02:41:28;;;;;;;;;;;;;;;28.36;23.80;101018.84;5038926;28;1973;-15
2023/03/03 02:44:02;;;;;;;;;;;;;;;27.68;24.61;101018.69;5022625;28;1528;-15
2023/03/03 02:46:30;;;;;;;;;;;;;;;26.90;25.85;101021.16;5035624;28;1195;-14
2023/03/03 02:48:56;;;;;;;;;;;;;;;27.12;25.49;101007.94;5048865;28;1124;-14
2023/03/03 02:51:21;;;;;;;;;;;;;;;27.94;24.14;101012.97;5047587;28;1230;-14
2023/03/03 02:53:47;;;;;;;;;;;;;;;28.26;23.80;101015.53;5065803;28;1146;-14
2023/03/03 02:56:13;;;;;;;;;;;;;;;28.17;23.92;101017.50;5055337;28;1167;-14
2023/03/03 02:58:38;;;;;;;;;;;;;;;26.94;25.60;101015.41;5056376;28;1130;-15
2023/03/03 03:01:04;;;;;;;;;;;;;;;27.00;25.49;101015.53;5054923;28;2079;-14
2023/03/03 03:03:30;;;;;;;;;;;;;;;27.30;25.21;101012.22;5041429;28;1918;-14
2023/03/03 03:05:56;;;;;;;;;;;;;;;28.07;24.22;101008.78;5055414;28;1166;-15
2023/03/03 03:08:23;;;;;;;;;;;;;;;28.18;24.04;100999.38;5043010;28;1007;-15
2023/03/03 03:10:49;;;;;;;;;;;;;;;27.28;25.10;101005.31;5041675;28;1186;-14
2023/03/03 03:13:15;;;;;;;;;;;;;;;26.86;25.89;101003.59;5056767;28;1071;-14
2023/03/03 03:15:46;;;;;;;;;;;;;;;26.99;25.74;100997.66;5041586;28;1382;-14
2023/03/03 03:18:12;;;;;;;;;;;;;;;28.02;24.13;101003.09;5047195;28;1107;-14
2023/03/03 03:20:40;;;;;;;;;;;;;;;28.33;23.53;101002.13;5064795;28;1420;-14
2023/03/03 03:23:07;;;;;;;;;;;;;;;28.13;23.81;100997.22;5043398;28;1902;-15
2023/03/03 03:25:33;;;;;;;;;;;;;;;26.94;25.88;101001.91;5055060;28;1113;-14
2023/03/03 03:27:59;;;;;;;;;;;;;;;27.04;25.99;101002.56;5071181;28;1106;-14
2023/03/03 03:30:24;;;;;;;;;;;;;;;27.51;25.22;100999.91;5041549;28;1195;-14
2023/03/03 03:32:50;;;;;;;;;;;;;;;28.23;23.97;100997.81;5046808;28;1266;-15
2023/03/03 03:35:16;;;;;;;;;;;;;;;28.28;23.72;100994.56;5065875;28;1191;-14
2023/03/03 03:37:43;;;;;;;;;;;;;;;27.29;25.13;100991.63;5071557;28;1122;-14
2023/03/03 03:40:09;;;;;;;;;;;;;;;26.80;25.94;100988.13;5071513;28;1226;-14
2023/03/03 03:42:36;;;;;;;;;;;;;;;27.13;25.55;100997.94;5055468;28;1902;-14
2023/03/03 03:45:02;;;;;;;;;;;;;;;27.99;24.29;100990.78;5054450;28;1091;-15
2023/03/03 03:47:27;;;;;;;;;;;;;;;28.29;23.82;100985.44;5047369;28;1151;-14
2023/03/03 03:49:54;;;;;;;;;;;;;;;28.31;23.84;100987.94;5036522;28;1265;-14
2023/03/03 03:52:19;;;;;;;;;;;;;;;27.00;25.70;100993.09;5054734;28;1106;-14
2023/03/03 03:54:45;;;;;;;;;;;;;;;27.05;25.74;100987.19;5054185;28;924;-14
2023/03/03 03:57:10;;;;;;;;;;;;;;;27.39;25.39;100988.69;5038617;28;1076;-14
2023/03/03 03:59:36;;;;;;;;;;;;;;;28.21;23.97;100980.94;5070062;28;1264;-14
2023/03/03 04:02:02;;;;;;;;;;;;;;;28.20;24.24;100981.09;5058376;28;1883;-14
2023/03/03 04:04:27;;;;;;;;;;;;;;;27.61;25.05;100972.66;5059217;28;1102;-15
2023/03/03 04:06:54;;;;;;;;;;;;;;;26.99;26.03;100973.34;5074266;28;1526;-14
2023/03/03 04:09:19;;;;;;;;;;;;;;;27.12;26.00;100975.53;5069120;28;1320;-14
2023/03/03 04:11:46;;;;;;;;;;;;;;;28.07;24.18;100976.34;5058328;28;1138;-15
2023/03/03 04:14:12;;;;;;;;;;;;;;;28.31;23.98;100977.13;5057941;28;1354;-15
2023/03/03 04:16:38;;;;;;;;;;;;;;;28.35;24.11;100973.03;5033436;28;1146;-14
2023/03/03 04:19:04;;;;;;;;;;;;;;;27.12;25.94;100962.03;5038091;28;1079;-14
2023/03/03 04:21:32;;;;;;;;;;;;;;;26.97;26.03;100970.00;5046119;28;1902;-14
2023/03/03 04:23:59;;;;;;;;;;;;;;;27.37;25.87;100969.97;5058051;28;1201;-14
2023/03/03 04:26:27;;;;;;;;;;;;;;;28.29;24.12;100965.66;5058219;28;1159;-15
2023/03/03 04:28:53;;;;;;;;;;;;;;;28.28;24.14;100962.09;5056233;28;1087;-15
2023/03/03 04:31:19;;;;;;;;;;;;;;;28.36;24.16;100972.03;5064570;28;1361;-14
2023/03/03 04:33:46;;;;;;;;;;;;;;;27.35;25.69;100966.59;5069164;28;1188;-14
2023/03/03 04:36:12;;;;;;;;;;;;;;;27.36;25.13;100962.03;5057498;28;1282;-15
2023/03/03 04:38:37;;;;;;;;;;;;;;;26.62;21.89;100956.84;5058739;28;1106;-15
2023/03/03 04:41:04;;;;;;;;;;;;;;;24.82;23.10;100957.22;5057183;28;1083;-14
2023/03/03 04:43:33;;;;;;;;;;;;;;;24.37;23.44;100959.22;5054991;28;1910;-14
2023/03/03 04:45:59;;;;;;;;;;;;;;;24.55;23.53;100958.31;5062488;28;1406;-14
2023/03/03 04:48:25;;;;;;;;;;;;;;;24.13;23.91;100954.50;5058076;28;1162;-14
2023/03/03 04:50:51;;;;;;;;;;;;;;;24.15;22.61;100961.41;5059326;28;1039;-15
2023/03/03 04:53:18;;;;;;;;;;;;;;;25.23;23.57;100955.72;5057010;28;1372;-14
2023/03/03 04:55:44;;;;;;;;;;;;;;;26.62;22.66;100962.22;5042816;28;1333;-14
2023/03/03 04:58:10;;;;;;;;;;;;;;;26.08;22.97;100966.38;5053470;28;1131;-14
2023/03/03 05:00:37;;;;;;;;;;;;;;;25.90;22.50;100962.03;5057378;28;1094;-15
2023/03/03 05:03:03;;;;;;;;;;;;;;;23.05;24.28;100962.41;5056984;28;2117;-15
2023/03/03 05:05:28;;;;;;;;;;;;;;;22.30;24.62;100959.59;5056880;28;1396;-15
2023/03/03 05:07:54;;;;;;;;;;;;;;;22.04;25.63;100964.72;5058451;28;1209;-14
2023/03/03 05:10:20;;;;;;;;;;;;;;;24.53;23.86;100961.16;5057396;28;1078;-14
2023/03/03 05:12:45;;;;;;;;;;;;;;;26.67;22.07;100966.25;5038146;28;1214;-14
2023/03/03 05:15:11;;;;;;;;;;;;;;;25.84;24.01;100969.94;5057214;28;1075;-16
2023/03/03 05:17:37;;;;;;;;;;;;;;;25.83;23.71;100979.88;5057581;28;1184;-15
2023/03/03 05:20:04;;;;;;;;;;;;;;;26.20;23.44;100977.66;5057699;28;1070;-15
2023/03/03 05:22:30;;;;;;;;;;;;;;;26.84;22.18;100975.94;5058256;28;1981;-15
2023/03/03 05:24:56;;;;;;;;;;;;;;;26.28;23.28;100968.69;5057858;28;1158;-15
2023/03/03 05:27:22;;;;;;;;;;;;;;;26.27;23.45;100989.44;5058063;28;1048;-15
2023/03/03 05:29:47;;;;;;;;;;;;;;;27.27;21.81;100982.84;5057769;28;1171;-15
2023/03/03 05:32:13;;;;;;;;;;;;;;;26.88;22.33;100981.84;5058094;28;1126;-15
2023/03/03 05:34:38;;;;;;;;;;;;;;;26.59;23.08;100988.72;5057680;28;1092;-15
2023/03/03 05:37:05;;;;;;;;;;;;;;;26.45;22.96;100988.41;5057714;28;1135;-14
2023/03/03 05:39:31;;;;;;;;;;;;;;;27.18;22.55;100981.22;5058229;28;1108;-15
2023/03/03 05:41:57;;;;;;;;;;;;;;;27.23;22.32;100989.63;5057316;28;1906;-14
2023/03/03 05:44:22;;;;;;;;;;;;;;;26.58;23.05;100979.78;5058182;28;1254;-15
2023/03/03 05:46:48;;;;;;;;;;;;;;;26.58;23.21;100981.63;5057832;28;1136;-14
2023/03/03 05:49:13;;;;;;;;;;;;;;;26.95;22.89;100984.69;5058010;28;1173;-15
2023/03/03 05:51:39;;;;;;;;;;;;;;;27.19;22.37;100983.75;5044007;28;1039;-15
2023/03/03 05:54:04;;;;;;;;;;;;;;;27.11;22.65;100978.41;5057353;28;1143;-15
2023/03/03 05:56:30;;;;;;;;;;;;;;;27.67;21.90;100987.31;5055411;28;1190;-14
2023/03/03 05:58:56;;;;;;;;;;;;;;;27.66;22.26;100991.84;5057702;28;1012;-15
2023/03/03 06:01:21;;;;;;;;;;;;;;;27.85;21.68;100993.28;5057510;28;1174;-14
2023/03/03 06:03:47;;;;;;;;;;;;;;;27.52;22.22;100990.78;5057045;28;1997;-14
2023/03/03 06:06:15;;;;;;;;;;;;;;;27.35;22.44;100990.91;5057373;28;1138;-14
2023/03/03 06:08:40;;;;;;;;;;;;;;;26.94;23.22;100978.47;5057629;28;1094;-14
2023/03/03 06:11:06;;;;;;;;;;;;;;;26.45;23.94;100983.00;5056992;28;1154;-14
2023/03/03 06:13:31;;;;;;;;;;;;;;;27.12;23.30;100978.22;5072662;28;1323;-14
2023/03/03 06:15:57;;;;;;;;;;;;;;;27.23;22.70;100982.38;5056957;28;1149;-15
2023/03/03 06:18:23;;;;;;;;;;;;;;;26.83;23.28;100976.13;5055986;28;1252;-14
2023/03/03 06:20:54;;;;;;;;;;;;;;;26.94;23.30;100974.91;5056730;28;1214;-14
2023/03/03 06:23:20;;;;;;;;;;;;;;;27.38;22.55;100976.19;5056645;28;1971;-15
2023/03/03 06:25:46;;;;;;;;;;;;;;;27.20;23.04;100982.72;5056739;28;1167;-14
2023/03/03 06:28:12;;;;;;;;;;;;;;;26.89;23.48;100981.66;5057023;28;1119;-15
2023/03/03 06:30:38;;;;;;;;;;;;;;;27.90;22.26;100983.75;5056451;28;1051;-15
2023/03/03 06:33:03;;;;;;;;;;;;;;;28.03;21.97;100992.09;5056520;28;1126;-14
2023/03/03 06:35:29;;;;;;;;;;;;;;;27.55;22.61;100987.72;5056728;28;1257;-14
2023/03/03 06:37:54;;;;;;;;;;;;;;;27.54;22.55;100982.50;5056731;28;1285;-15
2023/03/03 06:40:20;;;;;;;;;;;;;;;26.36;24.38;100990.28;5056727;28;1170;-15
2023/03/03 06:42:45;;;;;;;;;;;;;;;26.47;24.13;100996.34;5056418;28;1967;-15
2023/03/03 06:45:11;;;;;;;;;;;;;;;26.97;23.77;100990.75;5056808;28;1161;-15
2023/03/03 06:47:37;;;;;;;;;;;;;;;27.29;23.36;100988.94;5056728;28;1110;-15
2023/03/03 06:50:03;;;;;;;;;;;;;;;27.33;23.04;100994.78;5056814;28;1234;-15
2023/03/03 06:52:28;;;;;;;;;;;;;;;27.38;23.16;100992.41;5056261;28;1128;-15
2023/03/03 06:54:54;;;;;;;;;;;;;;;27.29;23.16;100993.47;5051435;28;1226;-15
2023/03/03 06:57:32;;;;;;;;;;;;;;;27.47;22.93;100995.91;5056554;28;1040;-15
2023/03/03 07:00:19;;;;;;;;;;;;;;;27.62;23.18;100996.81;5056499;28;1142;-14
2023/03/03 07:02:44;;;;;;;;;;;;;;;27.64;22.82;100991.22;5055124;28;1938;-15
2023/03/03 07:05:14;;;;;;;;;;;;;;;27.54;22.92;100994.16;5056446;28;1046;-14
2023/03/03 07:07:39;;;;;;;;;;;;;;;27.06;23.67;100992.41;5055829;28;1112;-15
2023/03/03 07:10:06;;;;;;;;;;;;;;;26.24;24.65;100997.84;5056664;28;1114;-15
2023/03/03 07:12:32;;;;;;;;;;;;;;;26.47;24.81;100993.63;5056440;28;1074;-14
2023/03/03 07:15:09;;;;;;;;;;;;;;;27.42;23.28;100988.34;5054874;28;1473;-14
2023/03/03 07:17:35;;;;;;;;;;;;;;;27.23;23.68;100986.91;5054656;28;1218;-15
2023/03/03 07:20:01;;;;;;;;;;;;;;;27.49;22.82;100983.88;5055763;28;860;-15
2023/03/03 07:22:26;;;;;;;;;;;;;;;27.30;23.13;100978.94;5055873;28;1902;-15
2023/03/03 07:25:00;;;;;;;;;;;;;;;27.47;23.47;100976.97;5054878;28;1250;-15
2023/03/03 07:27:27;;;;;;;;;;;;;;;26.72;24.01;100983.63;5054695;28;1064;-15
2023/03/03 07:29:53;;;;;;;;;;;;;;;27.55;23.15;100978.78;5057407;28;1218;-15
2023/03/03 07:32:26;;;;;;;;;;;;;;;27.66;22.90;100974.81;5043283;28;1079;-15
2023/03/03 07:34:52;;;;;;;;;;;;;;;27.38;22.69;100968.94;5051146;28;1048;-15
2023/03/03 07:37:19;;;;;;;;;;;;;;;27.54;22.91;100967.16;5056522;28;1307;-15
2023/03/03 07:39:44;;;;;;;;;;;;;;;28.03;22.32;100967.75;5040120;28;1246;-14
2023/03/03 07:42:10;;;;;;;;;;;;;;;27.72;22.62;100966.00;5050222;28;1973;-15
2023/03/03 07:44:36;;;;;;;;;;;;;;;27.68;22.68;100964.66;5059827;28;1067;-15
2023/03/03 07:47:11;;;;;;;;;;;;;;;26.97;23.86;100961.91;5058343;28;1381;-14
2023/03/03 07:49:37;;;;;;;;;;;;;;;26.25;25.03;100967.19;5058289;28;1163;-15
2023/03/03 07:52:21;;;;;;;;;;;;;;;26.50;24.60;100967.16;5059638;28;1056;-15
2023/03/03 07:54:46;;;;;;;;;;;;;;;27.41;23.47;100956.91;5047250;28;1127;-15
2023/03/03 07:57:41;;;;;;;;;;;;;;;27.54;23.09;100955.50;5055402;28;1082;-15
2023/03/03 08:00:13;;;;;;;;;;;;;;;27.50;22.85;100950.44;5058535;28;2541;-14
2023/03/03 08:02:41;;;;;;;;;;;;;;;26.93;23.58;100948.91;5059638;28;1906;-14
2023/03/03 08:05:25;;;;;;;;;;;;;;;26.75;24.08;100945.47;5059675;28;1008;-15
2023/03/03 08:07:51;;;;;;;;;;;;;;;27.39;23.16;100954.41;5059398;28;1083;-14
2023/03/03 08:10:29;;;;;;;;;;;;;;;27.62;22.73;100950.88;5059666;28;1222;-14
2023/03/03 08:12:54;;;;;;;;;;;;;;;27.58;23.04;100957.66;5059401;28;1106;-15
2023/03/03 08:15:21;;;;;;;;;;;;;;;27.15;23.84;100947.31;5058252;28;1067;-15
2023/03/03 08:17:47;;;;;;;;;;;;;;;27.63;22.96;100951.69;5059039;28;1265;-14
2023/03/03 08:20:42;;;;;;;;;;;;;;;27.34;23.32;100951.38;5059276;28;1252;-15
2023/03/03 08:23:08;;;;;;;;;;;;;;;27.70;22.65;100949.13;5042628;28;1898;-14
2023/03/03 08:25:34;;;;;;;;;;;;;;;27.59;22.94;100950.38;5058518;28;1067;-15
2023/03/03 08:27:59;;;;;;;;;;;;;;;27.14;23.97;100949.16;5059282;28;1055;-15
2023/03/03 08:30:25;;;;;;;;;;;;;;;27.31;23.66;100946.34;5059237;28;1155;-14
2023/03/03 08:32:50;;;;;;;;;;;;;;;27.53;23.20;100946.53;5058772;28;953;-15
2023/03/03 08:35:16;;;;;;;;;;;;;;;27.82;22.75;100941.44;5058527;28;1119;-15
2023/03/03 08:37:41;;;;;;;;;;;;;;;27.61;22.82;100949.16;5058851;28;1118;-15
2023/03/03 08:40:07;;;;;;;;;;;;;;;26.94;23.88;100945.22;5058668;28;1167;-15
2023/03/03 08:42:33;;;;;;;;;;;;;;;27.06;23.90;100949.22;5058082;28;1910;-15
2023/03/03 08:44:58;;;;;;;;;;;;;;;28.04;22.71;100946.97;5053193;28;991;-14
2023/03/03 08:47:24;;;;;;;;;;;;;;;28.10;23.31;100949.78;5036980;28;1358;-15
2023/03/03 08:49:50;;;;;;;;;;;;;;;27.91;23.03;100951.13;5039198;28;1207;-15
2023/03/03 08:52:15;;;;;;;;;;;;;;;28.42;22.17;100951.50;5042857;28;1151;-15
2023/03/03 08:54:41;;;;;;;;;;;;;;;28.19;22.31;100947.00;5040064;28;831;-15
2023/03/03 08:57:07;;;;;;;;;;;;;;;27.95;22.93;100949.75;5042166;28;881;-18
2023/03/03 08:59:36;;;;;;;;;;;;;;;28.71;22.22;100952.50;5044175;28;844;-15
2023/03/03 09:02:02;;;;;;;;;;;;;;;29.16;21.54;100946.97;5042218;28;1969;-15
2023/03/03 09:04:28;;;;;;;;;;;;;;;28.35;22.21;100949.53;5034059;28;1001;-15
2023/03/03 09:06:53;;;;;;;;;;;;;;;28.38;21.95;100942.91;5038904;28;1114;-19
2023/03/03 09:09:19;;;;;;;;;;;;;;;27.94;22.87;100945.38;5038146;28;919;-15
2023/03/03 09:11:46;;;;;;;;;;;;;;;28.86;22.04;100944.34;5035046;28;1212;-15
2023/03/03 09:14:12;;;;;;;;;;;;;;;28.51;22.10;100944.94;5041866;28;1093;-15
2023/03/03 09:16:39;;;;;;;;;;;;;;;28.36;22.36;100936.88;5043817;28;1172;-15
2023/03/03 09:19:15;;;;;;;;;;;;;;;27.71;23.34;100935.44;5041328;28;1002;-15
2023/03/03 09:21:41;;;;;;;;;;;;;;;28.21;22.82;100934.94;5038527;28;1906;-15
2023/03/03 09:24:09;;;;;;;;;;;;;;;26.81;24.85;100927.72;5040980;28;1001;-16
2023/03/03 09:26:38;;;;;;;;;;;;;;;27.01;24.69;100928.16;5048591;28;1306;-15
2023/03/03 09:29:12;;;;;;;;;;;;;;;27.23;23.96;100916.69;5037944;28;836;-14
2023/03/03 09:31:45;;;;;;;;;;;;;;;27.82;23.19;100909.84;5042157;28;873;-15
2023/03/03 09:34:16;;;;;;;;;;;;;;;27.93;22.63;100921.22;5038153;28;1009;-15
2023/03/03 09:36:42;;;;;;;;;;;;;;;27.51;23.51;100910.75;5036484;28;993;-15
2023/03/03 09:39:12;;;;;;;;;;;;;;;27.98;22.97;100911.53;5039862;28;974;-15
2023/03/03 09:41:46;;;;;;;;;;;;;;;28.18;22.48;100913.69;5056961;28;2410;-15
2023/03/03 09:44:21;;;;;;;;;;;;;;;27.93;22.76;100916.66;5042174;28;1154;-15
2023/03/03 09:46:46;;;;;;;;;;;;;;;28.60;22.31;100913.22;5039223;28;916;-15
2023/03/03 09:49:32;;;;;;;;;;;;;;;28.32;22.45;100912.00;5035958;28;882;-14
2023/03/03 09:51:57;;;;;;;;;;;;;;;28.28;22.44;100905.28;5038282;28;831;-15
2023/03/03 09:54:23;;;;;;;;;;;;;;;27.84;23.06;100896.97;5045444;28;865;-15
2023/03/03 09:57:02;;;;;;;;;;;;;;;28.96;21.74;100898.84;5043036;28;1161;-15
2023/03/03 09:59:37;;;;;;;;;;;;;;;28.20;22.45;100889.16;5034604;28;845;-15
2023/03/03 10:02:08;;;;;;;;;;;;;;;27.72;23.44;100882.22;5045619;28;1981;-14
2023/03/03 10:04:37;;;;;;;;;;;;;;;28.32;22.33;100876.00;5036834;28;877;-15
2023/03/03 10:07:21;;;;;;;;;;;;;;;28.11;22.81;100867.59;5044807;28;870;-15
2023/03/03 10:09:52;;;;;;;;;;;;;;;28.32;22.44;100870.59;5042910;28;1024;-15
2023/03/03 10:12:18;;;;;;;;;;;;;;;28.46;22.30;100867.03;5041332;28;869;-15
2023/03/03 10:14:50;;;;;;;;;;;;;;;28.96;21.84;100866.34;5042670;28;958;-15
2023/03/03 10:17:18;;;;;;;;;;;;;;;28.38;22.25;100855.50;5038662;28;1009;-15
2023/03/03 10:19:46;;;;;;;;;;;;;;;28.36;22.40;100858.41;5046169;28;972;-15
2023/03/03 10:22:18;;;;;;;;;;;;;;;27.71;23.12;100853.53;5042929;28;1963;-14
2023/03/03 10:24:46;;;;;;;;;;;;;;;27.21;24.03;100851.25;5034786;28;1291;-14
2023/03/03 10:27:18;;;;;;;;;;;;;;;28.61;22.34;100849.97;5035458;28;869;-14
2023/03/03 10:30:03;;;;;;;;;;;;;;;28.36;22.30;100847.59;5041112;28;934;-15
2023/03/03 10:32:52;;;;;;;;;;;;;;;28.07;22.53;100843.84;5039617;28;1488;-15
2023/03/03 10:35:23;;;;;;;;;;;;;;;28.44;22.53;100836.66;5029633;28;1235;-14
2023/03/03 10:37:51;;;;;;;;;;;;;;;27.69;23.23;100847.47;5054011;28;1126;-15
2023/03/03 10:40:34;;;;;;;;;;;;;;;27.80;23.23;100844.31;5055321;28;1020;-14
2023/03/03 10:43:09;;;;;;;;;;;;;;;28.13;22.44;100834.97;5053780;28;1910;-15
2023/03/03 10:45:41;;;;;;;;;;;;;;;27.96;22.86;100835.16;5053388;28;888;-15
2023/03/03 10:48:14;;;;;;;;;;;;;;;27.35;23.77;100828.84;5055052;28;864;-14
2023/03/03 10:50:45;;;;;;;;;;;;;;;28.06;23.13;100824.06;5055821;28;1148;-15
2023/03/03 10:53:11;;;;;;;;;;;;;;;28.03;22.46;100826.31;5054436;28;1031;-15
2023/03/03 10:56:03;;;;;;;;;;;;;;;28.01;22.74;100831.06;5049502;28;1126;-15
2023/03/03 10:58:58;;;;;;;;;;;;;;;27.39;23.67;100823.91;5051687;28;1749;-15
2023/03/03 11:01:25;;;;;;;;;;;;;;;27.38;23.76;100812.25;5045770;28;1373;-15
2023/03/03 11:03:57;;;;;;;;;;;;;;;28.17;22.69;100813.78;5053576;28;1913;-15
2023/03/03 11:06:26;;;;;;;;;;;;;;;28.01;22.32;100804.03;5053456;28;1087;-15
2023/03/03 11:08:52;;;;;;;;;;;;;;;28.11;22.58;100794.59;5052035;28;1218;-15
2023/03/03 11:11:17;;;;;;;;;;;;;;;28.27;22.81;100797.28;5044575;28;1003;-15
2023/03/03 11:13:52;;;;;;;;;;;;;;;28.92;21.72;100788.41;5054369;28;1058;-15
2023/03/03 11:16:17;;;;;;;;;;;;;;;28.38;22.40;100793.28;5055137;28;1082;-15
2023/03/03 11:18:49;;;;;;;;;;;;;;;28.29;22.33;100785.25;5048982;28;1269;-14
2023/03/03 11:21:36;;;;;;;;;;;;;;;27.93;23.16;100772.50;5038474;28;1113;-14
2023/03/03 11:24:09;;;;;;;;;;;;;;;27.24;24.09;100761.75;5042780;28;1101;-14
2023/03/03 11:26:55;;;;;;;;;;;;;;;27.67;23.18;100754.88;5055212;28;1135;-15
2023/03/03 11:29:29;;;;;;;;;;;;;;;28.01;22.55;100750.78;5023700;28;1135;-15
2023/03/03 11:32:07;;;;;;;;;;;;;;;27.96;22.58;100753.25;5043104;28;1028;-15
2023/03/03 11:34:51;;;;;;;;;;;;;;;28.63;22.20;100742.31;5053110;28;872;-15
2023/03/03 11:37:21;;;;;;;;;;;;;;;28.45;22.22;100753.59;5054965;28;1045;-14
2023/03/03 11:39:47;;;;;;;;;;;;;;;28.43;21.94;100750.22;5053685;28;1064;-15
2023/03/03 11:42:27;;;;;;;;;;;;;;;27.89;22.57;100747.75;5053656;28;1977;-14
2023/03/03 11:44:58;;;;;;;;;;;;;;;27.26;23.74;100754.28;5042170;28;1151;-14
2023/03/03 11:47:25;;;;;;;;;;;;;;;27.59;23.30;100740.44;5055107;28;1127;-14
2023/03/03 11:49:53;;;;;;;;;;;;;;;28.26;22.51;100749.63;5055023;28;1202;-14
2023/03/03 11:52:37;;;;;;;;;;;;;;;28.32;22.19;100738.03;5053737;28;1218;-15
2023/03/03 11:55:03;;;;;;;;;;;;;;;27.77;23.12;100733.00;5055100;28;1119;-14
2023/03/03 11:57:31;;;;;;;;;;;;;;;28.40;22.49;100737.09;5054198;28;932;-14
2023/03/03 12:00:29;;;;;;;;;;;;;;;28.33;22.27;100742.44;5037690;28;1179;-14
2023/03/03 12:03:04;;;;;;;;;;;;;;;28.34;22.41;100738.72;5020618;28;1981;-15
2023/03/03 12:05:42;;;;;;;;;;;;;;;28.11;22.94;100740.50;5055246;28;1036;-14
2023/03/03 12:08:13;;;;;;;;;;;;;;;27.96;23.08;100745.13;5055762;28;1043;-14
2023/03/03 12:10:42;;;;;;;;;;;;;;;28.14;23.03;100742.00;5054012;28;894;-15
2023/03/03 12:13:10;;;;;;;;;;;;;;;28.35;22.29;100734.97;5055250;28;1115;-14
2023/03/03 12:15:51;;;;;;;;;;;;;;;28.31;22.47;100729.06;5056959;28;1099;-15
2023/03/03 12:18:19;;;;;;;;;;;;;;;28.35;22.50;100729.56;5046705;28;1176;-14
2023/03/03 12:21:03;;;;;;;;;;;;;;;28.23;22.81;100730.03;5059408;28;1131;-15
2023/03/03 12:23:41;;;;;;;;;;;;;;;28.21;22.59;100725.84;5059429;28;1902;-14
2023/03/03 12:26:30;;;;;;;;;;;;;;;28.32;22.18;100727.22;5059286;28;1047;-14
2023/03/03 12:28:58;;;;;;;;;;;;;;;28.35;22.42;100729.56;5053610;28;1688;-15
2023/03/03 12:31:26;;;;;;;;;;;;;;;28.20;22.32;100726.88;5057770;28;1122;-14
2023/03/03 12:33:55;;;;;;;;;;;;;;;28.08;22.39;100734.63;5042295;28;1074;-14
2023/03/03 12:36:21;;;;;;;;;;;;;;;28.14;22.31;100725.78;5039026;28;1139;-14
2023/03/03 12:39:09;;;;;;;;;;;;;;;28.02;22.27;100724.59;5042874;28;1147;-14
2023/03/03 12:42:00;;;;;;;;;;;;;;;27.87;22.69;100731.72;5053623;28;1404;-15
2023/03/03 12:44:44;;;;;;;;;;;;;;;27.83;22.47;100729.56;5058796;28;1097;-15
2023/03/03 12:47:13;;;;;;;;;;;;;;;27.66;22.84;100727.03;5058452;28;1112;-14
2023/03/03 12:49:52;;;;;;;;;;;;;;;26.78;24.39;100731.91;5058792;28;1186;-14
2023/03/03 12:52:29;;;;;;;;;;;;;;;26.51;24.47;100728.75;5057673;28;1020;-15
2023/03/03 12:54:57;;;;;;;;;;;;;;;27.02;24.08;100721.97;5059066;28;1123;-15
2023/03/03 12:57:25;;;;;;;;;;;;;;;27.14;24.19;100733.13;5058549;28;1134;-15
2023/03/03 13:00:03;;;;;;;;;;;;;;;27.52;23.54;100731.41;5057791;28;1175;-15